EW0407 Athens GR current weather conditions

sailwx.info

Wind from 045 at 2 knots gusting 5

Air temperature 32.2° C
Dewpoint 13.4° C

Last reported at 2020-Aug-13 13:04 UTC.
Time now 2020-Aug-13 13:59 UTC

Location: N 38°02' E 023°50'.
View on Google Maps.

See reports from other nearby stations

  
Tides and Currents Weather Stations Pressure Air Temp Water Temp Dewpoint Dewpoint Depression Visibility Wind Speed Wind Dir Waves Ship Positions
date/time (UTC)wind fromknots sea level pressurealtimeterstation pressurevisibilityair tempwater tempwave heightnotes
2020-Aug-13 13:04 045 2 gusting 5 32.2
2020-Aug-13 12:53 325 6 gusting 9 31.7
2020-Aug-13 12:44 337 6 gusting 8 31.7
2020-Aug-13 12:33 015 6 gusting 8 32.2
2020-Aug-13 12:22 303 4 gusting 7 31.7
2020-Aug-13 12:12 031 2 gusting 8 32.2
2020-Aug-13 12:01 314 2 gusting 11 31.7
2020-Aug-13 11:51 027 7 gusting 9 31.7
2020-Aug-13 11:40 014 6 gusting 11 31.1
2020-Aug-13 11:30 346 7 gusting 13 31.1
2020-Aug-13 11:21 325 4 gusting 8 31.7
2020-Aug-13 11:10 335 2 gusting 9 31.1
2020-Aug-13 11:00 298 6 gusting 12 31.1
2020-Aug-13 10:49 061 3 gusting 9 31.1
2020-Aug-13 10:39 293 1 gusting 6 31.7
2020-Aug-13 10:30 322 6 gusting 9 30.6
2020-Aug-13 10:19 340 9 gusting 13 31.7
2020-Aug-13 10:10 359 6 gusting 9 30.6
2020-Aug-13 09:59 356 6 gusting 14 30.6
2020-Aug-13 09:50 308 8 gusting 11 30.6
2020-Aug-13 09:39 322 7 gusting 12 30.6
2020-Aug-13 09:29 335 8 gusting 11 30.6
2020-Aug-13 09:20 009 4 gusting 11 30.6
2020-Aug-13 09:09 315 3 gusting 5 30.6
2020-Aug-13 09:00 014 7 gusting 13 30.0
2020-Aug-13 08:50 001 1 gusting 6 30.6
2020-Aug-13 08:39 341 12 gusting 14 30.0
2020-Aug-13 08:30 333 6 gusting 11 30.0
2020-Aug-13 08:19 009 7 gusting 11 29.4
2020-Aug-13 08:10 343 4 gusting 13 28.9
2020-Aug-13 08:00 063 3 gusting 6 30.0
2020-Aug-13 07:49 038 3 gusting 11 29.4
2020-Aug-13 07:39 012 5 gusting 9 28.9
2020-Aug-13 07:28 322 7 gusting 9 28.9
2020-Aug-13 07:18 033 6 gusting 8 28.9
2020-Aug-13 07:09 010 5 gusting 8 28.9
2020-Aug-13 06:58 004 5 gusting 7 28.3
2020-Aug-13 06:48 013 4 gusting 9 28.9
2020-Aug-13 06:39 355 4 gusting 9 28.3
2020-Aug-13 06:28 350 4 gusting 7 28.3
2020-Aug-13 06:19 274 5 gusting 9 27.8
2020-Aug-13 06:08 327 6 gusting 8 27.8
2020-Aug-13 05:57 301 6 gusting 9 27.8
2020-Aug-13 05:47 338 6 gusting 6 27.8
2020-Aug-13 05:38 011 2 gusting 6 27.8
2020-Aug-13 05:27 031 2 gusting 4 27.2
2020-Aug-13 05:18 348 3 gusting 6 27.2
2020-Aug-13 05:07 310 4 gusting 6 26.7
2020-Aug-13 04:58 333 2 gusting 5 26.7
2020-Aug-13 04:47 336 6 gusting 7 26.7
2020-Aug-13 04:38 331 0 gusting 4 26.1
2020-Aug-13 04:27 295 2 gusting 4 25.6
2020-Aug-13 04:18 322 0 gusting 1 26.1
2020-Aug-13 04:07 017 1 gusting 2 25.6
2020-Aug-13 03:57 326 1 gusting 2 25.6
2020-Aug-13 03:46 352 5 gusting 6 25.6
2020-Aug-13 03:36 311 5 gusting 6 25.6
2020-Aug-13 03:26 302 2 gusting 4 25.0
2020-Aug-13 03:17 307 3 gusting 4 25.0
2020-Aug-13 03:06 341 0 gusting 4 25.6
2020-Aug-13 02:55 305 3 gusting 5 25.6
2020-Aug-13 02:45 343 1 gusting 4 25.6
2020-Aug-13 02:36 344 2 gusting 5 26.1
2020-Aug-13 02:25 005 4 gusting 8 26.1
2020-Aug-13 02:15 326 6 gusting 6 26.1
2020-Aug-13 02:04 345 2 gusting 6 26.1
2020-Aug-13 01:54 015 4 gusting 8 26.7
2020-Aug-13 01:45 333 5 gusting 8 26.1
2020-Aug-13 01:34 001 5 gusting 7 26.7
2020-Aug-13 01:25 359 7 gusting 9 26.7
2020-Aug-13 01:14 004 4 gusting 6 26.7
2020-Aug-13 01:03 020 6 gusting 6 26.7
2020-Aug-13 00:53 019 2 gusting 6 26.7
2020-Aug-13 00:44 358 4 gusting 6 26.1
2020-Aug-13 00:33 353 0 gusting 0 26.1
2020-Aug-13 00:24 023 0 gusting 4 26.1
2020-Aug-13 00:13 337 3 gusting 5 26.7
2020-Aug-13 00:03 359 2 gusting 4 26.7
2020-Aug-12 23:52 323 2 gusting 4 26.7
2020-Aug-12 23:43 332 2 gusting 4 26.7
2020-Aug-12 23:32 332 1 gusting 5 27.2
2020-Aug-12 23:22 006 0 gusting 2 27.2
2020-Aug-12 23:11 359 2 gusting 4 27.2
2020-Aug-12 23:01 328 2 gusting 4 27.8
2020-Aug-12 22:50 347 1 gusting 2 27.8
2020-Aug-12 22:41 342 4 gusting 8 27.8
2020-Aug-12 22:30 353 2 gusting 4 27.8
2020-Aug-12 22:21 019 3 gusting 4 27.2
2020-Aug-12 22:10 339 4 gusting 6 27.8
2020-Aug-12 22:00 311 2 gusting 5 27.8
2020-Aug-12 21:49 327 1 gusting 2 27.8
2020-Aug-12 21:39 034 1 gusting 4 27.8
2020-Aug-12 21:28 026 2 gusting 2 28.3
2020-Aug-12 21:19 359 3 gusting 5 28.3
2020-Aug-12 21:08 349 2 gusting 5 28.3
2020-Aug-12 20:58 334 1 gusting 5 28.3
2020-Aug-12 20:49 009 4 gusting 5 28.3
2020-Aug-12 20:38 039 5 gusting 6 28.9
2020-Aug-12 20:27 341 1 gusting 2 28.3
2020-Aug-12 20:17 007 2 gusting 4 28.3
2020-Aug-12 20:06 303 0 gusting 0 27.2
2020-Aug-12 19:56 047 26.1
2020-Aug-12 19:46 26.7
2020-Aug-12 19:35 332 0 gusting 0 27.2
2020-Aug-12 19:25 27.2
2020-Aug-12 19:16 27.8
2020-Aug-12 19:05 326 0 gusting 1 27.8
2020-Aug-12 18:56 278 1 gusting 2 27.8
2020-Aug-12 18:45 061 27.2
2020-Aug-12 18:35 27.8
2020-Aug-12 18:25 078 0 gusting 1 28.3
2020-Aug-12 18:15 025 0 gusting 2 28.3
2020-Aug-12 18:04 063 28.3
2020-Aug-12 17:54 047 28.9
2020-Aug-12 17:43 012 0 gusting 2 29.4
2020-Aug-12 17:33 340 29.4
2020-Aug-12 17:24 001 1 gusting 1 29.4
2020-Aug-12 17:13 011 2 gusting 4 30.0
2020-Aug-12 17:03 341 1 gusting 5 30.6
2020-Aug-12 16:52 009 0 gusting 5 30.6
2020-Aug-12 16:42 359 1 gusting 4 30.6
2020-Aug-12 16:33 31.1
2020-Aug-12 16:22 005 3 gusting 4 31.7
2020-Aug-12 16:12 359 4 gusting 9 31.7
2020-Aug-12 16:02 033 3 gusting 5 31.7
2020-Aug-12 15:51 352 0 gusting 1 31.7
2020-Aug-12 15:42 041 4 gusting 8 32.2
2020-Aug-12 15:31 359 1 gusting 4 32.2
2020-Aug-12 15:22 052 1 gusting 5 32.2
2020-Aug-12 15:11 021 0 gusting 4 32.2
2020-Aug-12 15:00 344 2 gusting 4 32.8
2020-Aug-12 14:50 359 7 gusting 7 32.2
2020-Aug-12 14:41 061 2 gusting 7 32.2
2020-Aug-12 14:30 032 2 gusting 6 32.8
2020-Aug-12 14:21 028 3 gusting 7 32.2
2020-Aug-12 14:10 002 4 gusting 6 32.8
2020-Aug-12 14:01 346 6 gusting 9 32.2
2020-Aug-12 13:50 350 6 gusting 14 32.2
2020-Aug-12 13:41 107 4 gusting 9 32.8
2020-Aug-12 13:30 005 6 gusting 13 33.3
2020-Aug-12 13:21 034 4 gusting 7 32.8
2020-Aug-12 13:10 011 3 gusting 6 32.2
2020-Aug-12 13:01 353 6 gusting 9 32.8
2020-Aug-12 12:50 033 6 gusting 11 32.2
2020-Aug-12 12:41 004 3 gusting 12 31.7
2020-Aug-12 12:30 006 4 gusting 6 32.8
2020-Aug-12 12:21 060 2 gusting 7 31.7
2020-Aug-12 12:10 043 1 gusting 11 32.8
2020-Aug-12 12:01 332 6 gusting 7 32.2
2020-Aug-12 11:51 009 9 gusting 17 32.8
2020-Aug-12 11:40 291 1 gusting 6 32.2
2020-Aug-12 11:31 322 7 gusting 13 31.7
2020-Aug-12 11:20 012 1 gusting 6 31.7
2020-Aug-12 11:11 330 7 gusting 12 32.8
2020-Aug-12 11:00 048 2 gusting 7 32.2
2020-Aug-12 10:51 359 6 gusting 9 32.2
2020-Aug-12 10:41 325 6 gusting 6 32.2
2020-Aug-12 10:30 335 6 gusting 11 31.7
2020-Aug-12 10:21 106 2 gusting 6 31.7
2020-Aug-12 10:10 316 10 gusting 13 31.7
2020-Aug-12 10:01 020 10 gusting 13 31.7
2020-Aug-12 09:50 154 4 gusting 11 31.7
2020-Aug-12 09:41 110 4 gusting 12 31.1
2020-Aug-12 09:30 011 8 gusting 13 31.1
2020-Aug-12 09:21 062 1 gusting 13 31.1
2020-Aug-12 09:10 079 6 gusting 8 31.1
2020-Aug-12 09:01 335 4 gusting 9 30.6
2020-Aug-12 08:50 343 2 gusting 9 30.0
2020-Aug-12 08:41 346 6 gusting 12 30.6
2020-Aug-12 08:30 352 4 gusting 6 30.0
2020-Aug-12 08:20 322 7 gusting 8 30.0
2020-Aug-12 08:09 073 6 gusting 11 30.0
2020-Aug-12 08:00 323 4 gusting 8 30.0
2020-Aug-12 07:49 296 6 gusting 9 30.0
2020-Aug-12 07:38 350 3 gusting 8 30.0
2020-Aug-12 07:28 036 2 gusting 8 30.0
2020-Aug-12 07:17 005 4 gusting 6 29.4
2020-Aug-12 07:07 331 1 gusting 4 29.4
2020-Aug-12 06:58 342 6 gusting 7 29.4
2020-Aug-12 06:48 349 6 gusting 8 28.9
2020-Aug-12 06:37 299 3 gusting 7 28.9
2020-Aug-12 06:28 298 5 gusting 7 28.9
2020-Aug-12 06:17 027 2 gusting 4 28.9
2020-Aug-12 06:08 28.3
2020-Aug-12 05:57 001 4 gusting 6 28.3
2020-Aug-12 05:48 309 4 gusting 6 27.8
2020-Aug-12 05:37 327 2 gusting 4 27.8
2020-Aug-12 05:27 353 1 gusting 2 27.2
2020-Aug-12 05:16 024 1 gusting 4 27.2
2020-Aug-12 05:07 342 2 gusting 4 26.7
2020-Aug-12 04:56 015 2 gusting 4 26.7
2020-Aug-12 04:47 326 3 gusting 5 26.7
2020-Aug-12 04:36 020 1 gusting 2 26.1
2020-Aug-12 04:26 022 0 gusting 2 26.1
2020-Aug-12 04:15 339 3 gusting 5 26.1
2020-Aug-12 04:05 008 2 gusting 5 26.1
2020-Aug-12 03:54 007 2 gusting 4 25.6
2020-Aug-12 03:44 341 3 gusting 4 25.6
2020-Aug-12 03:33 005 2 gusting 5 26.1
2020-Aug-12 03:23 359 3 gusting 6 26.1
2020-Aug-12 03:14 001 5 gusting 6 26.1
2020-Aug-12 03:03 043 3 gusting 5 26.1
2020-Aug-12 02:54 322 2 gusting 4 26.1
2020-Aug-12 02:43 003 2 gusting 5 26.1
2020-Aug-12 02:33 022 2 gusting 5 26.1
2020-Aug-12 02:22 023 2 gusting 6 26.1
2020-Aug-12 02:13 002 3 gusting 6 26.1
2020-Aug-12 02:02 004 1 gusting 5 26.1
2020-Aug-12 01:51 011 2 gusting 5 26.1
2020-Aug-12 01:41 030 1 gusting 4 26.1
2020-Aug-12 01:31 357 0 gusting 4 26.1
2020-Aug-12 01:21 034 2 gusting 4 25.6
2020-Aug-12 01:10 017 1 gusting 4 26.1
2020-Aug-12 01:00 040 2 gusting 4 26.1
2020-Aug-12 00:51 042 26.7
2020-Aug-12 00:41 003 1 gusting 4 26.7
2020-Aug-12 00:30 359 1 gusting 4 26.7
2020-Aug-12 00:20 343 2 gusting 2 26.7
2020-Aug-12 00:11 318 0 gusting 2 26.7
2020-Aug-12 00:00 011 3 gusting 5 26.7
2020-Aug-11 23:50 007 2 gusting 4 26.7
2020-Aug-11 23:39 348 2 gusting 5 26.7
2020-Aug-11 23:29 015 2 gusting 4 26.7
2020-Aug-11 23:20 353 1 gusting 4 26.7
2020-Aug-11 23:10 015 2 gusting 5 26.7
2020-Aug-11 22:59 047 3 gusting 5 26.7
2020-Aug-11 22:49 336 4 gusting 6 26.7
2020-Aug-11 22:38 011 1 gusting 2 26.7
2020-Aug-11 22:28 356 2 gusting 4 26.7
2020-Aug-11 22:19 012 2 gusting 4 27.2
2020-Aug-11 21:58 358 2 gusting 4 27.2
2020-Aug-11 21:47 040 4 gusting 6 27.2
2020-Aug-11 21:37 030 4 gusting 5 27.2
2020-Aug-11 21:28 355 2 gusting 6 27.2
2020-Aug-11 21:17 021 2 gusting 6 27.2
2020-Aug-11 21:08 008 2 gusting 6 27.2
2020-Aug-11 20:57 341 3 gusting 7 27.2
2020-Aug-11 20:47 342 2 gusting 5 27.2
2020-Aug-11 20:36 353 2 gusting 2 26.7
2020-Aug-11 20:26 327 1 gusting 2 26.7
2020-Aug-11 20:15 359 1 gusting 2 26.7
2020-Aug-11 20:05 339 0 gusting 0 26.7
2020-Aug-11 19:54 012 0 gusting 2 27.2
2020-Aug-11 19:44 017 0 gusting 2 27.2
2020-Aug-11 19:33 356 2 gusting 2 27.2
2020-Aug-11 19:23 012 1 gusting 5 27.2
2020-Aug-11 19:12 308 2 gusting 4 26.7
2020-Aug-11 19:02 337 2 gusting 4 27.2
2020-Aug-11 18:52 346 2 gusting 5 27.2
2020-Aug-11 18:41 348 2 gusting 4 27.2
2020-Aug-11 18:32 340 3 gusting 6 27.2
2020-Aug-11 18:21 353 1 gusting 4 27.2
2020-Aug-11 18:12 351 0 gusting 2 27.8
2020-Aug-11 18:01 337 2 gusting 4 27.8
2020-Aug-11 17:50 004 1 gusting 4 27.8
2020-Aug-11 17:41 349 3 gusting 4 27.8
2020-Aug-11 17:30 002 2 gusting 6 28.3
2020-Aug-11 17:21 338 1 gusting 2 28.3
2020-Aug-11 17:10 017 1 gusting 4 28.9
2020-Aug-11 17:01 340 29.4
2020-Aug-11 16:50 059 2 gusting 5 29.4
2020-Aug-11 16:41 017 2 gusting 6 30.0
2020-Aug-11 16:30 018 1 gusting 6 30.0
2020-Aug-11 16:21 30.0
2020-Aug-11 16:10 044 0 gusting 7 30.0
2020-Aug-11 16:01 344 4 gusting 9 30.0
2020-Aug-11 15:50 350 7 gusting 11 30.0
2020-Aug-11 15:41 305 5 gusting 6 30.6
2020-Aug-11 15:30 348 1 gusting 2 31.1
2020-Aug-11 15:20 320 6 gusting 11 30.6
2020-Aug-11 15:09 003 9 gusting 14 31.1
2020-Aug-11 14:59 008 1 gusting 6 31.1
2020-Aug-11 14:48 354 4 gusting 14 31.1
2020-Aug-11 14:38 303 5 gusting 9 30.6
2020-Aug-11 14:29 327 6 gusting 8 31.1
2020-Aug-11 14:18 006 3 gusting 8 31.1
2020-Aug-11 14:09 303 4 gusting 12 31.1
2020-Aug-11 13:58 338 5 gusting 11 31.1
2020-Aug-11 13:47 336 4 gusting 13 30.6
2020-Aug-11 13:37 138 3 gusting 8 31.1
2020-Aug-11 13:26 039 7 gusting 9 31.1
2020-Aug-11 13:16 332 9 gusting 11 31.1
2020-Aug-11 13:06 339 4 gusting 13 31.1